WET,Max TemperatureF,Mean TemperatureF,Min TemperatureF,Max Dew PointF,MeanDew PointF,Min DewpointF,Max Humidity, Mean Humidity, Min Humidity, Max Sea Level PressureIn, Mean Sea Level PressureIn, Min Sea Level PressureIn, Max VisibilityMiles, Mean VisibilityMiles, Min VisibilityMiles, Max Wind SpeedMPH, Mean Wind SpeedMPH, Max Gust SpeedMPH,PrecipitationIn, CloudCover, Events, WindDirDegrees
2013-2-1,61,54,46,55,51,45,100,93,68,30.45,30.36,30.33,4,2,0,8,1,,0.00,6,Fog,339
2013-2-2,63,52,42,55,49,41,100,87,62,30.36,30.26,30.21,4,3,2,13,4,,0.04,5,Rain,219
2013-2-3,61,50,40,45,39,34,93,68,27,30.30,30.24,30.18,6,5,4,12,2,,0.00,4,,53
2013-2-4,64,50,35,45,35,27,93,61,15,30.29,30.24,30.21,5,5,5,12,5,,0.00,2,,71
2013-2-5,65,50,35,53,45,36,100,80,38,30.35,30.29,30.27,6,4,2,10,2,,0.00,2,,268
2013-2-6,62,52,41,54,47,39,100,85,51,30.36,30.30,30.27,5,3,2,14,1,,0.00,4,,339
2013-2-7,60,51,42,46,43,39,93,73,41,30.31,30.25,30.21,5,4,3,13,3,,0.00,3,,34
2013-2-8,59,46,34,43,39,32,100,76,46,30.22,30.15,30.12,6,5,5,10,3,,0.00,2,,34
2013-2-9,61,49,37,45,40,36,87,69,41,30.27,30.21,30.15,5,5,5,13,2,,0.00,1,,13
2013-2-10,61,49,37,46,40,34,93,72,37,30.28,30.22,30.18,5,5,5,12,2,,0.00,1,,349
2013-2-11,59,50,41,54,48,43,94,81,62,30.25,30.20,30.15,5,4,1,16,8,,0.28,5,Rain,255
2013-2-12,59,54,49,54,48,44,94,81,58,30.28,30.23,30.18,5,4,1,17,5,,0.20,6,Rain,264
2013-2-13,62,53,44,50,47,43,100,80,49,30.30,30.24,30.18,5,4,4,10,1,,0.00,4,Rain,27
2013-2-14,63,51,39,54,48,38,100,86,48,30.24,30.16,30.12,5,4,1,13,2,,0.00,3,,12
2013-2-15,63,50,38,57,51,46,100,92,67,30.18,30.13,30.09,3,1,0,9,1,,0.00,5,Fog,341
2013-2-16,62,53,44,55,50,43,100,92,66,30.16,30.11,30.06,3,1,0,7,1,,0.00,6,Fog,350
2013-2-17,66,56,46,55,50,45,100,87,43,30.10,30.03,29.98,4,2,0,14,2,,0.00,5,Fog,215
2013-2-18,66,58,50,54,51,46,100,78,49,30.01,29.88,29.80,4,3,2,12,4,,0.00,5,,193
2013-2-19,60,54,46,54,49,45,94,75,61,29.92,29.81,29.74,5,4,3,15,6,,0.04,6,Rain,256
2013-2-20,61,54,46,48,46,43,100,80,46,30.10,30.02,29.92,6,4,3,10,4,18,0.01,3,,230
2013-2-21,63,52,42,59,51,41,100,87,67,30.12,30.07,30.04,6,4,2,15,5,,0.08,5,Rain,218
2013-2-22,67,58,48,56,54,50,94,82,62,30.07,29.99,29.92,5,4,1,24,13,40,0.01,5,Rain,231
2013-2-23,62,57,52,54,50,43,94,73,54,30.18,30.04,29.95,4,3,2,21,14,39,0.08,6,Rain,278
2013-2-24,58,50,42,45,42,39,93,64,43,30.24,30.19,30.15,5,5,4,12,7,,0.00,4,,319
2013-2-25,60,52,43,45,42,37,87,69,39,30.21,30.12,30.04,6,5,3,15,4,,0.00,2,,51
2013-2-26,63,50,36,45,40,34,87,68,31,30.06,29.94,29.83,6,6,5,15,3,,0.00,1,,56
2013-2-27,60,48,37,48,41,36,93,69,39,29.89,29.83,29.80,6,5,5,12,2,,0.00,3,,293
2013-2-28,59,52,46,48,43,37,93,68,33,30.06,29.94,29.86,5,4,3,18,8,30,0.04,5,Rain,260